createdAt,value
2018-12-12T00:02:09.364Z,21.60
2018-12-12T00:04:35.343Z,21.56
2018-12-12T00:07:01.335Z,21.58
2018-12-12T00:09:27.317Z,21.55
2018-12-12T00:11:53.328Z,21.56
2018-12-12T00:14:19.369Z,21.57
2018-12-12T00:16:45.287Z,21.55
2018-12-12T00:19:11.274Z,21.53
2018-12-12T00:21:37.255Z,21.55
2018-12-12T00:24:03.231Z,21.54
2018-12-12T00:26:29.209Z,21.56
2018-12-12T00:28:55.185Z,21.53
2018-12-12T00:31:21.175Z,21.55
2018-12-12T00:33:47.169Z,21.53
2018-12-12T00:36:13.156Z,21.51
2018-12-12T00:38:39.130Z,21.56
2018-12-12T00:41:05.113Z,21.53
2018-12-12T00:43:31.089Z,21.57
2018-12-12T00:45:57.055Z,21.56
2018-12-12T00:48:23.028Z,21.56
2018-12-12T00:50:49.012Z,21.54
2018-12-12T00:53:14.990Z,21.53
2018-12-12T00:55:40.974Z,21.53
2018-12-12T00:58:06.969Z,21.51
2018-12-12T01:00:32.997Z,21.54
2018-12-12T01:02:58.989Z,21.52
2018-12-12T01:05:24.990Z,21.53
2018-12-12T01:07:50.966Z,21.51
2018-12-12T01:10:16.954Z,21.51
2018-12-12T01:12:42.924Z,21.52
2018-12-12T01:15:08.887Z,21.52
2018-12-12T01:17:34.860Z,21.53
2018-12-12T01:20:00.860Z,21.55
2018-12-12T01:22:26.831Z,21.54
2018-12-12T01:24:52.795Z,21.57
2018-12-12T01:27:18.813Z,21.54
2018-12-12T01:29:44.808Z,21.52
2018-12-12T01:32:10.778Z,21.53
2018-12-12T01:34:36.766Z,21.50
2018-12-12T01:37:02.764Z,21.51
2018-12-12T01:39:28.741Z,21.51
2018-12-12T01:41:54.744Z,21.52
2018-12-12T01:44:20.744Z,21.49
2018-12-12T01:46:46.715Z,21.53
2018-12-12T01:49:12.682Z,21.52
2018-12-12T01:51:38.642Z,21.52
2018-12-12T01:54:04.646Z,21.57
2018-12-12T01:56:30.612Z,21.51
2018-12-12T01:58:56.576Z,21.53
2018-12-12T02:01:22.556Z,21.51
2018-12-12T02:03:48.544Z,21.55
2018-12-12T02:06:14.537Z,21.55
2018-12-12T02:08:40.516Z,21.53
2018-12-12T02:11:06.487Z,21.56
2018-12-12T02:13:32.451Z,21.55
2018-12-12T02:15:58.439Z,21.53
2018-12-12T02:18:24.416Z,21.55
2018-12-12T02:20:50.403Z,21.52
2018-12-12T02:23:16.388Z,21.51
2018-12-12T02:25:42.362Z,21.49
2018-12-12T02:28:08.359Z,21.51
2018-12-12T02:30:34.344Z,21.50
2018-12-12T02:33:00.316Z,21.49
2018-12-12T02:35:26.325Z,21.51
2018-12-12T02:37:52.300Z,21.52
2018-12-12T02:40:18.274Z,21.52
2018-12-12T02:42:44.259Z,21.53
2018-12-12T02:45:10.246Z,21.52
2018-12-12T02:47:36.227Z,21.52
2018-12-12T02:50:02.198Z,21.54
2018-12-12T02:52:28.162Z,21.53
2018-12-12T02:54:54.148Z,21.53
2018-12-12T02:57:20.139Z,21.54
2018-12-12T02:59:46.128Z,21.52
2018-12-12T03:02:12.104Z,21.49
2018-12-12T03:04:38.086Z,21.53
2018-12-12T03:07:04.075Z,21.50
2018-12-12T03:09:30.061Z,21.50
2018-12-12T03:11:56.059Z,21.51
2018-12-12T03:14:22.042Z,21.48
2018-12-12T03:16:48.048Z,21.51
2018-12-12T03:19:14.018Z,21.51
2018-12-12T03:21:40.006Z,21.51
2018-12-12T03:24:05.975Z,21.49
2018-12-12T03:26:31.975Z,21.50
2018-12-12T03:28:57.949Z,21.50
2018-12-12T03:31:23.930Z,21.54
2018-12-12T03:33:49.904Z,21.51
2018-12-12T03:36:15.893Z,21.45
2018-12-12T03:38:41.857Z,21.51
2018-12-12T03:41:07.860Z,21.52
2018-12-12T03:43:33.829Z,21.51
2018-12-12T03:45:59.805Z,21.54
2018-12-12T03:48:25.806Z,21.50
2018-12-12T03:50:51.809Z,21.50
2018-12-12T03:53:17.789Z,21.53
2018-12-12T03:55:43.784Z,21.48
2018-12-12T03:58:09.758Z,21.48
2018-12-12T04:00:35.740Z,21.49
2018-12-12T04:03:01.729Z,21.49
2018-12-12T04:05:27.732Z,21.50
2018-12-12T04:07:53.706Z,21.50
2018-12-12T04:10:19.687Z,21.52
2018-12-12T04:12:45.682Z,21.46
2018-12-12T04:15:11.658Z,21.52
2018-12-12T04:17:37.635Z,21.47
2018-12-12T04:20:03.636Z,21.47
2018-12-12T04:22:29.631Z,21.47
2018-12-12T04:24:55.615Z,21.50
2018-12-12T04:27:21.581Z,21.50
2018-12-12T04:29:47.570Z,21.49
2018-12-12T04:32:13.536Z,21.48
2018-12-12T04:34:39.542Z,21.50
2018-12-12T04:37:05.517Z,21.50
2018-12-12T04:39:31.483Z,21.45
2018-12-12T04:41:58.712Z,21.47
2018-12-12T04:44:23.486Z,21.45
2018-12-12T04:46:49.458Z,21.47
2018-12-12T04:49:15.448Z,21.49
2018-12-12T04:51:41.458Z,21.45
2018-12-12T04:54:07.448Z,21.45
2018-12-12T04:56:33.411Z,21.44
2018-12-12T04:58:59.392Z,21.44
2018-12-12T05:01:25.365Z,21.43
2018-12-12T05:03:51.373Z,21.46
2018-12-12T05:06:17.346Z,21.42
2018-12-12T05:08:43.318Z,21.40
2018-12-12T05:11:09.347Z,21.41
2018-12-12T05:13:35.326Z,21.41
2018-12-12T05:16:01.314Z,21.41
2018-12-12T05:18:27.329Z,21.43
2018-12-12T05:20:53.298Z,21.41
2018-12-12T05:23:19.290Z,21.41
2018-12-12T05:25:45.261Z,21.43
2018-12-12T05:28:11.268Z,21.45
2018-12-12T05:30:37.251Z,21.39
2018-12-12T05:33:03.253Z,21.39
2018-12-12T05:35:29.256Z,21.32
2018-12-12T05:37:55.247Z,21.30
2018-12-12T05:40:21.231Z,21.27
2018-12-12T05:42:47.197Z,21.27
2018-12-12T05:45:13.164Z,21.27
2018-12-12T05:47:39.149Z,21.28
2018-12-12T05:50:05.143Z,21.32
2018-12-12T05:52:31.107Z,21.32
2018-12-12T05:54:57.108Z,21.28
2018-12-12T05:57:23.106Z,21.27
2018-12-12T05:59:49.076Z,21.29
2018-12-12T06:02:15.075Z,21.26
2018-12-12T06:04:41.065Z,21.27
2018-12-12T06:07:07.080Z,21.26
2018-12-12T06:09:33.057Z,21.25
2018-12-12T06:11:59.012Z,21.23
2018-12-12T06:14:25.016Z,21.24
2018-12-12T06:16:51.032Z,21.28
2018-12-12T06:19:17.076Z,21.28
2018-12-12T06:21:42.966Z,21.26
2018-12-12T06:24:08.937Z,21.25
2018-12-12T06:26:37.532Z,21.26
2018-12-12T06:29:00.925Z,21.26
2018-12-12T06:31:26.888Z,21.26
2018-12-12T06:33:52.902Z,21.26
2018-12-12T06:36:18.906Z,21.27
2018-12-12T06:38:44.961Z,21.28
2018-12-12T06:41:10.922Z,21.25
2018-12-12T06:43:36.914Z,21.23
2018-12-12T06:46:02.868Z,21.30
2018-12-12T06:48:28.884Z,21.30
2018-12-12T06:50:54.867Z,21.39
2018-12-12T06:53:20.869Z,21.39
2018-12-12T06:55:46.849Z,21.37
2018-12-12T06:58:12.854Z,21.32
2018-12-12T07:00:38.884Z,21.32
2018-12-12T07:03:04.860Z,21.40
2018-12-12T07:05:30.840Z,21.42
2018-12-12T07:07:56.833Z,21.43
2018-12-12T07:10:22.817Z,21.47
2018-12-12T07:12:48.829Z,21.48
2018-12-12T07:15:14.857Z,21.47
2018-12-12T07:17:40.838Z,21.48
2018-12-12T07:20:06.853Z,21.50
2018-12-12T07:22:32.886Z,21.54
2018-12-12T07:24:58.972Z,21.56
2018-12-12T07:27:24.947Z,21.45
2018-12-12T07:29:50.961Z,21.46
2018-12-12T07:32:16.938Z,21.48
2018-12-12T07:34:42.929Z,21.39
2018-12-12T07:37:08.900Z,21.41
2018-12-12T07:39:36.014Z,21.39
2018-12-12T07:42:02.045Z,21.38
2018-12-12T07:44:28.898Z,21.38
2018-12-12T07:46:54.926Z,21.41
2018-12-12T07:49:24.517Z,21.37
2018-12-12T07:51:50.474Z,21.46
2018-12-12T07:54:16.485Z,21.51
2018-12-12T07:56:42.452Z,21.52
2018-12-12T07:59:08.556Z,21.72
2018-12-12T08:01:34.553Z,21.75
2018-12-12T08:04:00.556Z,21.86
2018-12-12T08:06:26.553Z,21.67
2018-12-12T08:08:52.530Z,21.53
2018-12-12T08:11:18.536Z,21.43
2018-12-12T08:13:44.537Z,21.51
2018-12-12T08:16:10.546Z,21.51
2018-12-12T08:18:36.525Z,21.46
2018-12-12T08:21:02.515Z,21.50
2018-12-12T08:23:28.485Z,21.48
2018-12-12T08:25:54.471Z,21.55
2018-12-12T08:28:20.462Z,21.62
2018-12-12T08:30:46.429Z,21.62
2018-12-12T08:33:12.439Z,21.61
2018-12-12T08:35:38.454Z,21.56
2018-12-12T08:38:04.787Z,21.60
2018-12-12T08:40:30.783Z,21.62
2018-12-12T08:42:56.781Z,21.61
2018-12-12T08:45:22.754Z,21.64
2018-12-12T08:47:48.890Z,21.66
2018-12-12T08:50:14.852Z,21.51
2018-12-12T08:52:40.850Z,21.59
2018-12-12T08:55:06.834Z,21.55
2018-12-12T08:57:32.831Z,21.62
2018-12-12T08:59:58.808Z,21.61
2018-12-12T09:02:24.782Z,21.63
2018-12-12T09:04:50.775Z,21.65
2018-12-12T09:07:16.763Z,21.71
2018-12-12T09:09:42.747Z,21.72
2018-12-12T09:12:08.729Z,21.78
2018-12-12T09:14:34.701Z,21.83
2018-12-12T09:17:00.686Z,21.86
2018-12-12T09:19:26.685Z,21.86
2018-12-12T09:21:52.788Z,21.89
2018-12-12T09:24:18.773Z,21.71
2018-12-12T09:26:44.773Z,21.69
2018-12-12T09:29:10.745Z,21.66
2018-12-12T09:31:36.739Z,21.74
2018-12-12T09:34:02.753Z,21.79
2018-12-12T09:36:28.734Z,21.75
2018-12-12T09:38:54.709Z,21.75
2018-12-12T09:41:20.755Z,21.78
2018-12-12T09:43:46.744Z,21.75
2018-12-12T09:46:12.702Z,21.87
2018-12-12T09:48:38.701Z,21.86
2018-12-12T09:51:07.316Z,21.84
2018-12-12T09:53:30.728Z,21.83
2018-12-12T09:55:56.692Z,21.83
2018-12-12T09:58:22.740Z,21.86
2018-12-12T10:00:48.645Z,21.80
2018-12-12T10:03:14.626Z,21.72
2018-12-12T10:05:40.622Z,21.61
2018-12-12T10:08:06.599Z,21.55
2018-12-12T10:10:32.574Z,21.53
2018-12-12T10:12:58.574Z,21.55
2018-12-12T10:15:24.536Z,21.53
2018-12-12T10:17:50.536Z,21.52
2018-12-12T10:20:16.545Z,21.50
2018-12-12T10:22:42.540Z,21.47
2018-12-12T10:25:08.563Z,21.46
2018-12-12T10:27:34.480Z,21.44
2018-12-12T10:30:00.467Z,21.48
2018-12-12T10:32:26.450Z,21.44
2018-12-12T10:34:52.419Z,21.44
2018-12-12T10:37:18.413Z,21.43
2018-12-12T10:39:44.380Z,21.42
2018-12-12T10:42:10.383Z,21.43
2018-12-12T10:44:36.356Z,21.44
2018-12-12T10:47:02.518Z,21.49
2018-12-12T10:49:28.503Z,21.53
2018-12-12T10:51:54.489Z,21.55
2018-12-12T10:54:20.467Z,21.50
2018-12-12T10:56:46.502Z,21.46
2018-12-12T10:59:12.489Z,21.44
2018-12-12T11:01:38.467Z,21.46
2018-12-12T11:04:04.441Z,21.44
2018-12-12T11:06:30.465Z,21.45
2018-12-12T11:08:56.451Z,21.41
2018-12-12T11:11:22.459Z,21.43
2018-12-12T11:13:48.453Z,21.41
2018-12-12T11:16:14.439Z,21.44
2018-12-12T11:18:40.419Z,21.43
2018-12-12T11:21:06.423Z,21.44
2018-12-12T11:23:32.412Z,21.48
2018-12-12T11:25:58.416Z,21.47
2018-12-12T11:28:24.410Z,21.50
2018-12-12T11:30:50.530Z,21.54
2018-12-12T11:33:16.594Z,21.56
2018-12-12T11:35:42.634Z,21.59
2018-12-12T11:38:08.663Z,21.62
2018-12-12T11:40:34.746Z,21.66
2018-12-12T11:43:00.796Z,21.67
2018-12-12T11:45:26.783Z,21.72
2018-12-12T11:47:52.774Z,21.74
2018-12-12T11:50:18.755Z,21.78
2018-12-12T11:52:44.714Z,21.73
2018-12-12T11:55:10.698Z,21.78
2018-12-12T11:57:36.677Z,21.79
2018-12-12T12:00:02.837Z,21.81
2018-12-12T12:02:28.804Z,21.84
2018-12-12T12:04:54.799Z,21.89
2018-12-12T12:07:20.806Z,21.90
2018-12-12T12:09:46.788Z,21.92
2018-12-12T12:12:12.796Z,21.86
2018-12-12T12:14:38.750Z,21.78
2018-12-12T12:17:04.752Z,21.70
2018-12-12T12:19:30.733Z,21.68
2018-12-12T12:21:56.729Z,21.65
2018-12-12T12:24:22.710Z,21.64
2018-12-12T12:26:48.694Z,21.58
2018-12-12T12:29:14.676Z,21.59
2018-12-12T12:31:40.662Z,21.57
2018-12-12T12:34:06.637Z,21.58
2018-12-12T12:36:32.633Z,21.55
2018-12-12T12:38:58.596Z,21.53
2018-12-12T12:41:24.574Z,21.52
2018-12-12T12:43:50.541Z,21.55
2018-12-12T12:46:16.544Z,21.52
2018-12-12T12:48:42.514Z,21.51
2018-12-12T12:51:08.479Z,21.50
2018-12-12T12:53:34.468Z,21.46
2018-12-12T12:56:00.471Z,21.50
2018-12-12T12:58:26.453Z,21.46
2018-12-12T13:00:52.458Z,21.45
2018-12-12T13:03:18.422Z,21.45
2018-12-12T13:05:44.398Z,21.44
2018-12-12T13:08:10.401Z,21.44
2018-12-12T13:10:36.364Z,21.44
2018-12-12T13:13:02.371Z,21.42
2018-12-12T13:15:28.346Z,21.45
2018-12-12T13:17:54.335Z,21.48
2018-12-12T13:20:20.305Z,21.43
2018-12-12T13:22:46.321Z,21.43
2018-12-12T13:25:12.311Z,21.43
2018-12-12T13:27:38.288Z,21.42
2018-12-12T13:30:04.596Z,21.43
2018-12-12T13:32:30.597Z,21.41
2018-12-12T13:34:56.585Z,21.41
2018-12-12T13:37:22.588Z,21.40
2018-12-12T13:39:48.551Z,21.42
2018-12-12T13:42:14.550Z,21.38
2018-12-12T13:44:40.520Z,21.39
2018-12-12T13:47:06.531Z,21.39
2018-12-12T13:49:32.490Z,21.38
2018-12-12T13:51:58.482Z,21.38
2018-12-12T13:54:24.479Z,21.37
2018-12-12T13:56:50.462Z,21.37
2018-12-12T13:59:16.440Z,21.37
2018-12-12T14:01:42.450Z,21.39
2018-12-12T14:04:08.435Z,21.37
2018-12-12T14:06:34.449Z,21.38
2018-12-12T14:09:00.423Z,21.36
2018-12-12T14:11:26.468Z,21.36
2018-12-12T14:13:52.450Z,21.35
2018-12-12T14:16:18.431Z,21.35
2018-12-12T14:18:44.427Z,21.36
2018-12-12T14:21:10.413Z,21.35
2018-12-12T14:23:36.396Z,21.33
2018-12-12T14:26:02.405Z,21.33
2018-12-12T14:28:28.402Z,21.33
2018-12-12T14:30:54.388Z,21.32
2018-12-12T14:33:20.406Z,21.34
2018-12-12T14:35:46.448Z,21.32
2018-12-12T14:38:12.412Z,21.30
2018-12-12T14:40:38.438Z,21.30
2018-12-12T14:43:04.420Z,21.31
2018-12-12T14:45:30.419Z,21.30
2018-12-12T14:47:56.408Z,21.30
2018-12-12T14:50:22.403Z,21.30
2018-12-12T14:52:48.394Z,21.29
2018-12-12T14:55:14.369Z,21.29
2018-12-12T14:57:40.353Z,21.29
2018-12-12T15:00:06.390Z,21.29
2018-12-12T15:02:32.365Z,21.28
2018-12-12T15:04:58.343Z,21.32
2018-12-12T15:07:24.320Z,21.29
2018-12-12T15:09:50.312Z,21.27
2018-12-12T15:12:16.328Z,21.28
2018-12-12T15:14:42.330Z,21.29
2018-12-12T15:17:08.307Z,21.30
2018-12-12T15:19:34.325Z,21.29
2018-12-12T15:22:00.299Z,21.29
2018-12-12T15:24:26.290Z,21.29
2018-12-12T15:26:52.280Z,21.31
2018-12-12T15:29:18.274Z,21.30
2018-12-12T15:31:44.244Z,21.28
2018-12-12T15:34:10.233Z,21.28
2018-12-12T15:36:36.212Z,21.29
2018-12-12T15:39:02.205Z,21.28
2018-12-12T15:41:28.208Z,21.30
2018-12-12T15:43:54.170Z,21.30
2018-12-12T15:46:20.147Z,21.32
2018-12-12T15:48:46.142Z,21.33
2018-12-12T15:51:12.126Z,21.36
2018-12-12T15:53:38.130Z,21.34
2018-12-12T15:56:04.115Z,21.30
2018-12-12T15:58:30.145Z,21.39
2018-12-12T16:00:56.112Z,21.34
2018-12-12T16:03:22.108Z,21.34
2018-12-12T16:05:48.193Z,21.34
2018-12-12T16:08:14.164Z,21.34
2018-12-12T16:10:40.147Z,21.36
2018-12-12T16:13:06.152Z,21.35
2018-12-12T16:15:32.139Z,21.37
2018-12-12T16:17:58.184Z,21.35
2018-12-12T16:20:24.151Z,21.37
2018-12-12T16:22:50.137Z,21.38
2018-12-12T16:25:16.109Z,21.48
2018-12-12T16:27:42.129Z,21.51
2018-12-12T16:30:08.123Z,21.51
2018-12-12T16:32:37.122Z,21.47
2018-12-12T16:35:03.158Z,21.53
2018-12-12T16:37:29.126Z,21.63
2018-12-12T16:39:55.100Z,21.64
2018-12-12T16:42:21.085Z,21.65
2018-12-12T16:44:47.071Z,21.67
2018-12-12T16:47:13.045Z,21.61
2018-12-12T16:49:39.065Z,21.58
2018-12-12T16:52:05.065Z,21.56
2018-12-12T16:54:31.057Z,21.56
2018-12-12T16:56:57.037Z,21.56
2018-12-12T16:59:23.027Z,21.58
2018-12-12T17:01:49.005Z,21.63
2018-12-12T17:04:14.992Z,21.61
2018-12-12T17:06:40.957Z,21.62
2018-12-12T17:09:06.944Z,21.67
2018-12-12T17:11:32.917Z,21.71
2018-12-12T17:13:58.889Z,21.69
2018-12-12T17:16:24.887Z,21.73
2018-12-12T17:18:50.860Z,21.66
2018-12-12T17:21:16.845Z,21.69
2018-12-12T17:23:42.868Z,21.75
2018-12-12T17:26:08.851Z,21.75
2018-12-12T17:28:34.830Z,21.81
2018-12-12T17:31:00.827Z,21.83
2018-12-12T17:33:26.803Z,21.88
2018-12-12T17:35:52.849Z,22.00
2018-12-12T17:38:18.853Z,21.94
2018-12-12T17:40:44.837Z,21.97
2018-12-12T17:43:10.845Z,22.05
2018-12-12T17:45:36.820Z,22.05
2018-12-12T17:48:02.790Z,22.02
2018-12-12T17:50:28.781Z,22.01
2018-12-12T17:52:54.804Z,22.05
2018-12-12T17:55:20.781Z,22.10
2018-12-12T17:57:46.795Z,22.11
2018-12-12T18:00:12.793Z,22.14
2018-12-12T18:02:38.780Z,22.04
2018-12-12T18:05:04.780Z,21.99
2018-12-12T18:07:30.772Z,21.92
2018-12-12T18:09:56.974Z,21.89
2018-12-12T18:12:22.976Z,21.95
2018-12-12T18:14:54.924Z,21.95
2018-12-12T18:17:20.914Z,21.88
2018-12-12T18:19:46.895Z,21.84
2018-12-12T18:22:12.873Z,21.84
2018-12-12T18:24:38.886Z,21.82
2018-12-12T18:27:04.867Z,21.85
2018-12-12T18:29:30.857Z,21.90
2018-12-12T18:31:56.847Z,21.89
2018-12-12T18:34:22.845Z,21.91
2018-12-12T18:36:48.841Z,21.91
2018-12-12T18:39:14.842Z,21.86
2018-12-12T18:41:43.328Z,21.93
2018-12-12T18:44:09.409Z,21.96
2018-12-12T18:46:35.387Z,22.02
2018-12-12T18:49:01.401Z,22.13
2018-12-12T18:51:27.376Z,22.10
2018-12-12T18:53:53.414Z,22.12
2018-12-12T18:56:19.485Z,22.16
2018-12-12T18:58:45.456Z,22.12
2018-12-12T19:01:11.430Z,22.05
2018-12-12T19:03:37.440Z,21.97
2018-12-12T19:06:03.455Z,21.88
2018-12-12T19:08:29.413Z,21.76
2018-12-12T19:10:55.400Z,21.78
2018-12-12T19:13:21.387Z,21.84
2018-12-12T19:15:47.353Z,21.89
2018-12-12T19:18:13.361Z,21.81
2018-12-12T19:20:39.357Z,21.78
2018-12-12T19:23:05.342Z,21.75
2018-12-12T19:25:31.318Z,21.83
2018-12-12T19:27:57.328Z,21.85
2018-12-12T19:30:23.295Z,21.86
2018-12-12T19:32:49.286Z,21.85
2018-12-12T19:35:15.308Z,21.87
2018-12-12T19:37:41.291Z,21.89
2018-12-12T19:40:07.269Z,21.88
2018-12-12T19:42:33.288Z,21.92
2018-12-12T19:44:59.280Z,21.93
2018-12-12T19:47:25.269Z,21.90
2018-12-12T19:49:51.285Z,21.91
2018-12-12T19:52:17.272Z,21.92
2018-12-12T19:54:43.238Z,21.93
2018-12-12T19:57:09.242Z,21.97
2018-12-12T19:59:35.334Z,21.89
2018-12-12T20:02:01.299Z,21.93
2018-12-12T20:04:27.761Z,21.95
2018-12-12T20:06:53.798Z,21.92
2018-12-12T20:09:19.779Z,21.94
2018-12-12T20:11:45.736Z,21.98
2018-12-12T20:14:11.727Z,21.94
2018-12-12T20:16:37.713Z,21.93
2018-12-12T20:19:03.701Z,21.98
2018-12-12T20:21:29.680Z,21.98
2018-12-12T20:23:55.679Z,21.93
2018-12-12T20:26:21.638Z,21.97
2018-12-12T20:28:47.689Z,21.93
2018-12-12T20:31:13.654Z,21.96
2018-12-12T20:33:39.634Z,21.94
2018-12-12T20:36:05.643Z,21.98
2018-12-12T20:38:31.802Z,21.98
2018-12-12T20:40:57.801Z,22.05
2018-12-12T20:43:23.798Z,22.00
2018-12-12T20:45:49.782Z,22.00
2018-12-12T20:48:15.770Z,21.95
2018-12-12T20:50:41.744Z,22.04
2018-12-12T20:53:07.723Z,22.01
2018-12-12T20:55:33.696Z,21.97
2018-12-12T20:57:59.720Z,21.98
2018-12-12T21:00:25.701Z,22.04
2018-12-12T21:02:51.769Z,22.05
2018-12-12T21:05:17.780Z,22.00
2018-12-12T21:07:43.785Z,21.99
2018-12-12T21:10:09.754Z,22.04
2018-12-12T21:12:35.742Z,22.02
2018-12-12T21:15:01.727Z,22.03
2018-12-12T21:17:27.748Z,22.01
2018-12-12T21:19:53.726Z,21.98
2018-12-12T21:22:19.706Z,22.00
2018-12-12T21:24:45.684Z,21.93
2018-12-12T21:27:11.644Z,21.90
2018-12-12T21:29:37.636Z,21.88
2018-12-12T21:32:03.639Z,21.92
2018-12-12T21:34:29.633Z,21.96
2018-12-12T21:36:55.667Z,22.00
2018-12-12T21:39:22.443Z,21.97
2018-12-12T21:41:49.064Z,22.03
2018-12-12T21:44:15.040Z,22.06
2018-12-12T21:46:42.506Z,22.00
2018-12-12T21:49:10.297Z,21.99
2018-12-12T21:51:42.632Z,22.00
2018-12-12T21:54:15.704Z,22.02
2018-12-12T21:56:43.852Z,21.95
2018-12-12T21:59:09.898Z,21.99
2018-12-12T22:01:35.884Z,21.97
2018-12-12T22:04:02.060Z,21.85
2018-12-12T22:06:28.032Z,21.82
2018-12-12T22:08:54.006Z,21.73
2018-12-12T22:11:20.253Z,21.72
2018-12-12T22:13:46.227Z,21.70
2018-12-12T22:16:12.211Z,21.66
2018-12-12T22:18:38.229Z,21.72
2018-12-12T22:21:04.232Z,21.69
2018-12-12T22:23:30.215Z,21.69
2018-12-12T22:25:56.212Z,21.66
2018-12-12T22:28:22.186Z,21.65
2018-12-12T22:30:48.170Z,21.67
2018-12-12T22:33:14.162Z,21.71
2018-12-12T22:35:40.186Z,21.70
2018-12-12T22:38:06.162Z,21.68
2018-12-12T22:40:32.128Z,21.70
2018-12-12T22:42:58.119Z,21.69
2018-12-12T22:45:24.096Z,21.68
2018-12-12T22:47:50.067Z,21.66
2018-12-12T22:50:16.028Z,21.68
2018-12-12T22:52:42.042Z,21.62
2018-12-12T22:55:08.002Z,21.64
2018-12-12T22:57:33.986Z,21.67
2018-12-12T22:59:59.944Z,21.63
2018-12-12T23:02:25.921Z,21.67
2018-12-12T23:04:51.905Z,21.64
2018-12-12T23:07:17.885Z,21.63
2018-12-12T23:09:43.850Z,21.71
2018-12-12T23:12:09.845Z,21.64
2018-12-12T23:14:35.846Z,21.65
2018-12-12T23:17:01.815Z,21.65
2018-12-12T23:19:27.787Z,21.62
2018-12-12T23:21:53.779Z,21.61
2018-12-12T23:24:25.128Z,21.61
2018-12-12T23:26:45.750Z,21.60
2018-12-12T23:29:11.732Z,21.60
2018-12-12T23:31:37.703Z,21.57
2018-12-12T23:34:03.671Z,21.59
2018-12-12T23:36:29.665Z,21.61
2018-12-12T23:38:55.616Z,21.60
2018-12-12T23:41:21.617Z,21.62
2018-12-12T23:43:47.600Z,21.60
2018-12-12T23:46:13.579Z,21.60
2018-12-12T23:48:39.547Z,21.62
2018-12-12T23:51:05.512Z,21.63
2018-12-12T23:53:31.526Z,21.61
2018-12-12T23:55:57.493Z,21.61
2018-12-12T23:58:23.478Z,21.56
